createdAt,value
2024-01-20T00:00:39.442Z,100549.66
2024-01-20T00:03:07.378Z,100561.53
2024-01-20T00:05:36.915Z,100544.41
2024-01-20T00:08:05.002Z,100562.56
2024-01-20T00:10:33.199Z,100557.63
2024-01-20T00:13:03.462Z,100556.34
2024-01-20T00:15:31.461Z,100547.22
2024-01-20T00:17:59.411Z,100541.13
2024-01-20T00:20:27.971Z,100554.31
2024-01-20T00:22:57.802Z,100563.28
2024-01-20T00:25:25.942Z,100552.97
2024-01-20T00:27:54.945Z,100560.38
2024-01-20T00:30:23.367Z,100541.78
2024-01-20T00:32:51.784Z,100541.00
2024-01-20T00:35:20.269Z,100569.72
2024-01-20T00:37:48.324Z,100574.75
2024-01-20T00:40:17.654Z,100569.03
2024-01-20T00:42:45.745Z,100571.75
2024-01-20T00:45:13.845Z,100570.91
2024-01-20T00:47:41.792Z,100551.13
2024-01-20T00:50:10.406Z,100567.88
2024-01-20T00:52:38.566Z,100574.72
2024-01-20T00:55:07.781Z,100569.47
2024-01-20T00:57:37.331Z,100579.97
2024-01-20T01:00:09.745Z,100603.63
2024-01-20T01:02:38.089Z,100592.78
2024-01-20T01:05:07.532Z,100595.50
2024-01-20T01:07:36.350Z,100603.75
2024-01-20T01:10:05.675Z,100600.59
2024-01-20T01:12:33.639Z,100606.03
2024-01-20T01:15:03.362Z,100608.31
2024-01-20T01:17:31.394Z,100614.03
2024-01-20T01:19:59.367Z,100611.75
2024-01-20T01:22:27.323Z,100609.09
2024-01-20T01:24:55.458Z,100599.09
2024-01-20T01:27:23.445Z,100613.81
2024-01-20T01:29:51.458Z,100592.72
2024-01-20T01:32:21.062Z,100603.34
2024-01-20T01:34:49.041Z,100605.91
2024-01-20T01:37:17.048Z,100594.41
2024-01-20T01:39:46.161Z,100592.75
2024-01-20T01:42:14.024Z,100604.63
2024-01-20T01:44:41.916Z,100609.22
2024-01-20T01:47:10.047Z,100609.38
2024-01-20T01:52:08.161Z,100609.19
2024-01-20T01:54:36.548Z,100618.78
2024-01-20T01:57:07.091Z,100618.50
2024-01-20T01:59:37.372Z,100605.97
2024-01-20T02:02:05.433Z,100626.38
2024-01-20T02:04:33.321Z,100610.22
2024-01-20T02:07:02.893Z,100631.19
2024-01-20T02:09:31.952Z,100624.56
2024-01-20T02:12:01.218Z,100629.22
2024-01-20T02:14:29.393Z,100635.53
2024-01-20T02:16:57.400Z,100634.03
2024-01-20T02:19:25.278Z,100626.66
2024-01-20T02:21:53.316Z,100617.09
2024-01-20T02:24:22.771Z,100646.28
2024-01-20T02:26:51.952Z,100647.84
2024-01-20T02:29:19.968Z,100653.19
2024-01-20T02:31:48.069Z,100650.81
2024-01-20T02:34:16.039Z,100632.13
2024-01-20T02:36:44.160Z,100644.09
2024-01-20T02:39:12.299Z,100648.47
2024-01-20T02:41:41.581Z,100651.22
2024-01-20T02:44:09.573Z,100644.34
2024-01-20T02:46:37.589Z,100636.78
2024-01-20T02:49:05.629Z,100644.91
2024-01-20T02:51:33.832Z,100651.06
2024-01-20T02:54:01.967Z,100634.81
2024-01-20T02:56:29.898Z,100651.34
2024-01-20T02:58:59.237Z,100649.19
2024-01-20T03:01:27.305Z,100649.63
2024-01-20T03:03:55.306Z,100652.91
2024-01-20T03:06:23.340Z,100655.13
2024-01-20T03:08:51.421Z,100653.38
2024-01-20T03:11:19.365Z,100659.78
2024-01-20T03:13:49.295Z,100668.81
2024-01-20T03:16:18.474Z,100675.09
2024-01-20T03:18:46.389Z,100675.81
2024-01-20T03:21:14.424Z,100673.16
2024-01-20T03:23:44.021Z,100682.25
2024-01-20T03:26:12.101Z,100681.28
2024-01-20T03:28:42.133Z,100675.81
2024-01-20T03:31:10.168Z,100680.16
2024-01-20T03:33:39.570Z,100688.84
2024-01-20T03:36:08.145Z,100699.81
2024-01-20T03:38:36.228Z,100699.56
2024-01-20T03:41:04.220Z,100707.09
2024-01-20T03:43:32.294Z,100701.94
2024-01-20T03:46:00.339Z,100706.72
2024-01-20T03:48:28.674Z,100704.53
2024-01-20T03:50:58.141Z,100715.31
2024-01-20T03:53:26.065Z,100719.97
2024-01-20T03:55:54.009Z,100718.34
2024-01-20T03:58:22.085Z,100718.41
2024-01-20T04:00:50.229Z,100721.41
2024-01-20T04:03:18.405Z,100708.00
2024-01-20T04:05:48.388Z,100704.28
2024-01-20T04:08:17.533Z,100715.59
2024-01-20T04:10:45.621Z,100715.13
2024-01-20T04:13:13.623Z,100702.16
2024-01-20T04:15:41.556Z,100705.72
2024-01-20T04:18:09.682Z,100711.97
2024-01-20T04:20:37.918Z,100711.97
2024-01-20T04:23:05.810Z,100705.28
2024-01-20T04:25:35.095Z,100725.50
2024-01-20T04:28:07.894Z,100733.63
2024-01-20T04:30:36.002Z,100733.63
2024-01-20T04:33:04.119Z,100730.19
2024-01-20T04:35:32.430Z,100741.31
2024-01-20T04:38:00.334Z,100743.00
2024-01-20T04:40:28.234Z,100721.63
2024-01-20T04:42:57.763Z,100751.84
2024-01-20T04:45:25.721Z,100749.63
2024-01-20T04:47:53.867Z,100743.56
2024-01-20T04:50:26.370Z,100762.63
2024-01-20T04:52:54.328Z,100741.56
2024-01-20T04:55:22.297Z,100763.13
2024-01-20T04:57:50.516Z,100771.59
2024-01-20T05:00:20.472Z,100766.47
2024-01-20T05:02:48.191Z,100784.44
2024-01-20T05:05:16.378Z,100793.78
2024-01-20T05:07:44.358Z,100794.78
2024-01-20T05:10:12.428Z,100773.06
2024-01-20T05:12:40.385Z,100777.41
2024-01-20T05:15:12.943Z,100803.78
2024-01-20T05:17:42.685Z,100797.28
2024-01-20T05:20:14.339Z,100799.13
2024-01-20T05:22:42.241Z,100799.25
2024-01-20T05:25:10.543Z,100804.19
2024-01-20T05:27:38.774Z,100799.38
2024-01-20T05:30:07.967Z,100812.66
2024-01-20T05:32:36.149Z,100816.22
2024-01-20T05:35:05.958Z,100817.19
2024-01-20T05:37:33.842Z,100817.28
2024-01-20T05:40:01.797Z,100817.44
2024-01-20T05:42:29.787Z,100825.88
2024-01-20T05:44:57.822Z,100832.72
2024-01-20T05:47:25.840Z,100837.88
2024-01-20T05:49:53.980Z,100824.81
2024-01-20T05:52:23.368Z,100840.06
2024-01-20T05:54:51.406Z,100845.13
2024-01-20T05:57:19.411Z,100850.50
2024-01-20T05:59:47.346Z,100857.22
2024-01-20T06:02:15.299Z,100863.84
2024-01-20T06:04:43.262Z,100851.63
2024-01-20T06:07:11.194Z,100864.91
2024-01-20T06:09:40.929Z,100868.91
2024-01-20T06:12:09.737Z,100874.97
2024-01-20T06:14:37.912Z,100874.06
2024-01-20T06:17:06.267Z,100881.00
2024-01-20T06:19:34.217Z,100886.75
2024-01-20T06:22:02.137Z,100892.44
2024-01-20T06:24:32.496Z,100897.25
2024-01-20T06:27:01.927Z,100897.25
2024-01-20T06:29:29.892Z,100888.78
2024-01-20T06:31:58.128Z,100910.91
2024-01-20T06:34:28.051Z,100914.41
2024-01-20T06:36:57.277Z,100909.41
2024-01-20T06:39:25.985Z,100922.81
2024-01-20T06:41:53.980Z,100903.97
2024-01-20T06:44:24.874Z,100924.94
2024-01-20T06:46:52.939Z,100932.38
2024-01-20T06:49:20.906Z,100943.06
2024-01-20T06:51:49.360Z,100953.53
2024-01-20T06:54:17.430Z,100949.59
2024-01-20T06:56:45.414Z,100946.00
2024-01-20T06:59:13.451Z,100960.19
2024-01-20T07:01:42.762Z,100959.94
2024-01-20T07:04:10.968Z,100969.19
2024-01-20T07:06:38.959Z,100949.13
2024-01-20T07:09:07.650Z,100973.28
2024-01-20T07:11:35.688Z,100968.28
2024-01-20T07:14:03.663Z,100985.53
2024-01-20T07:16:31.672Z,100982.50
2024-01-20T07:19:01.400Z,100983.41
2024-01-20T07:21:29.515Z,100997.34
2024-01-20T07:23:57.610Z,101003.16
2024-01-20T07:26:25.576Z,101009.66
2024-01-20T07:28:53.535Z,101018.22
2024-01-20T07:31:21.497Z,101026.38
2024-01-20T07:33:49.860Z,101028.69
2024-01-20T07:36:19.255Z,101039.25
2024-01-20T07:38:47.332Z,101050.16
2024-01-20T07:41:15.616Z,101039.78
2024-01-20T07:43:43.523Z,101037.22
2024-01-20T07:46:11.809Z,101061.03
2024-01-20T07:48:40.072Z,101036.16
2024-01-20T07:51:08.141Z,101075.22
2024-01-20T07:53:37.551Z,101066.38
2024-01-20T07:56:05.953Z,101076.75
2024-01-20T07:58:33.825Z,101086.94
2024-01-20T08:01:01.889Z,101092.75
2024-01-20T08:03:30.065Z,101092.81
2024-01-20T08:05:57.017Z,101114.09
2024-01-20T08:08:25.054Z,101093.25
2024-01-20T08:10:54.452Z,101114.53
2024-01-20T08:13:22.762Z,101110.63
2024-01-20T08:15:50.789Z,101109.38
2024-01-20T08:18:18.937Z,101102.41
2024-01-20T08:20:47.112Z,101110.19
2024-01-20T08:23:15.057Z,101115.69
2024-01-20T08:25:43.273Z,101119.94
2024-01-20T08:28:12.680Z,101128.50
2024-01-20T08:30:40.735Z,101131.16
2024-01-20T08:33:09.473Z,101137.53
2024-01-20T08:35:37.608Z,101127.94
2024-01-20T08:38:05.985Z,101157.22
2024-01-20T08:40:33.893Z,101160.81
2024-01-20T08:43:01.900Z,101149.25
2024-01-20T08:45:31.264Z,101179.94
2024-01-20T08:47:59.232Z,101182.69
2024-01-20T08:50:27.582Z,101181.31
2024-01-20T08:52:55.603Z,101182.75
2024-01-20T08:55:23.485Z,101191.31
2024-01-20T08:57:51.490Z,101199.09
2024-01-20T09:00:20.348Z,101206.34
2024-01-20T09:02:49.710Z,101210.34
2024-01-20T09:05:19.353Z,101200.34
2024-01-20T09:07:47.526Z,101216.94
2024-01-20T09:10:15.662Z,101202.84
2024-01-20T09:12:43.954Z,101210.63
2024-01-20T09:15:12.987Z,101239.75
2024-01-20T09:17:41.117Z,101240.88
2024-01-20T09:20:11.375Z,101262.88
2024-01-20T09:22:39.544Z,101261.97
2024-01-20T09:25:08.263Z,101262.16
2024-01-20T09:27:36.280Z,101260.47
2024-01-20T09:30:06.224Z,101280.66
2024-01-20T09:32:35.049Z,101288.75
2024-01-20T09:35:03.958Z,101300.91
2024-01-20T09:37:33.738Z,101296.16
2024-01-20T09:40:01.955Z,101301.66
2024-01-20T09:42:30.671Z,101304.56
2024-01-20T09:44:59.383Z,101310.75
2024-01-20T09:47:27.440Z,101305.50
2024-01-20T09:49:55.748Z,101310.84
2024-01-20T09:52:29.008Z,101306.44
2024-01-20T09:55:15.558Z,101311.94
2024-01-20T09:57:44.651Z,101322.50
2024-01-20T10:00:15.376Z,101324.94
2024-01-20T10:02:46.158Z,101326.38
2024-01-20T10:05:15.418Z,101343.97
2024-01-20T10:07:43.849Z,101343.47
2024-01-20T10:10:20.554Z,101354.00
2024-01-20T10:12:51.039Z,101366.44
2024-01-20T10:15:22.636Z,101370.72
2024-01-20T10:17:50.834Z,101375.09
2024-01-20T10:20:22.275Z,101379.94
2024-01-20T10:22:51.373Z,101385.16
2024-01-20T10:25:21.438Z,101392.03
2024-01-20T10:27:49.684Z,101398.88
2024-01-20T10:30:21.097Z,101385.81
2024-01-20T10:33:03.315Z,101377.59
2024-01-20T10:35:37.037Z,101398.59
2024-01-20T10:38:11.571Z,101398.53
2024-01-20T10:40:43.474Z,101385.97
2024-01-20T10:43:15.156Z,101414.34
2024-01-20T10:45:48.771Z,101389.44
2024-01-20T10:48:22.420Z,101406.34
2024-01-20T10:50:55.658Z,101404.50
2024-01-20T10:53:25.262Z,101408.63
2024-01-20T10:55:55.430Z,101424.09
2024-01-20T10:58:32.854Z,101429.94
2024-01-20T11:01:01.516Z,101439.53
2024-01-20T11:03:30.604Z,101446.84
2024-01-20T11:05:58.730Z,101452.41
2024-01-20T11:08:28.182Z,101461.28
2024-01-20T11:10:57.721Z,101468.88
2024-01-20T11:13:27.391Z,101486.91
2024-01-20T11:15:59.082Z,101478.41
2024-01-20T11:18:28.701Z,101493.63
2024-01-20T11:21:01.114Z,101484.97
2024-01-20T11:23:29.895Z,101476.09
2024-01-20T11:26:06.352Z,101490.75
2024-01-20T11:28:38.654Z,101490.47
2024-01-20T11:31:06.735Z,101496.63
2024-01-20T11:33:35.021Z,101497.41
2024-01-20T11:36:03.183Z,101491.97
2024-01-20T11:38:33.335Z,101480.50
2024-01-20T11:41:03.288Z,101479.19
2024-01-20T11:43:31.707Z,101486.97
2024-01-20T11:45:59.602Z,101487.56
2024-01-20T11:48:28.253Z,101481.31
2024-01-20T11:50:56.412Z,101490.75
2024-01-20T11:53:24.611Z,101496.53
2024-01-20T11:55:57.113Z,101502.84
2024-01-20T11:58:26.796Z,101496.03
2024-01-20T12:00:56.305Z,101511.69
2024-01-20T12:03:24.784Z,101511.13
2024-01-20T12:05:53.354Z,101518.41
2024-01-20T12:08:22.055Z,101528.97
2024-01-20T12:10:51.538Z,101526.47
2024-01-20T12:13:19.745Z,101543.97
2024-01-20T12:15:50.906Z,101548.19
2024-01-20T12:18:19.561Z,101552.47
2024-01-20T12:20:47.800Z,101507.31
2024-01-20T12:23:21.267Z,101542.66
2024-01-20T12:25:53.066Z,101547.13
2024-01-20T12:28:21.245Z,101545.44
2024-01-20T12:30:51.065Z,101546.69
2024-01-20T12:33:19.139Z,101554.06
2024-01-20T12:35:47.147Z,101548.59
2024-01-20T12:38:15.384Z,101550.25
2024-01-20T12:40:45.938Z,101566.91
2024-01-20T12:43:13.960Z,101576.78
2024-01-20T12:45:42.134Z,101586.91
2024-01-20T12:48:13.669Z,101589.41
2024-01-20T12:50:44.029Z,101584.72
2024-01-20T12:53:11.985Z,101619.25
2024-01-20T12:55:39.980Z,101613.75
2024-01-20T12:58:08.121Z,101629.19
2024-01-20T13:00:36.443Z,101638.91
2024-01-20T13:03:04.953Z,101626.03
2024-01-20T13:05:34.971Z,101622.47
2024-01-20T13:08:03.126Z,101617.81
2024-01-20T13:10:32.809Z,101605.47
2024-01-20T13:13:00.828Z,101598.72
2024-01-20T13:15:28.796Z,101615.97
2024-01-20T13:17:56.801Z,101620.13
2024-01-20T13:20:25.187Z,101629.91
2024-01-20T13:22:54.576Z,101636.53
2024-01-20T13:25:23.558Z,101644.72
2024-01-20T13:27:52.360Z,101637.84
2024-01-20T13:30:20.386Z,101650.00
2024-01-20T13:32:49.821Z,101650.81
2024-01-20T13:35:17.921Z,101653.69
2024-01-20T13:37:46.127Z,101674.25
2024-01-20T13:40:16.019Z,101707.75
2024-01-20T13:42:44.139Z,101711.25
2024-01-20T13:45:12.910Z,101711.13
2024-01-20T13:47:40.952Z,101723.88
2024-01-20T13:50:09.922Z,101733.41
2024-01-20T13:52:37.934Z,101732.50
2024-01-20T13:55:07.169Z,101732.34
2024-01-20T13:57:39.271Z,101746.34
2024-01-20T14:00:11.746Z,101750.75
2024-01-20T14:02:39.945Z,101757.97
2024-01-20T14:05:08.972Z,101764.34
2024-01-20T14:07:36.878Z,101770.53
2024-01-20T14:10:06.788Z,101777.75
2024-01-20T14:12:36.252Z,101780.53
2024-01-20T14:15:04.929Z,101791.72
2024-01-20T14:17:33.738Z,101796.72
2024-01-20T14:20:01.739Z,101795.72
2024-01-20T14:22:29.724Z,101803.94
2024-01-20T14:24:57.973Z,101793.84
2024-01-20T14:27:25.938Z,101777.72
2024-01-20T14:29:55.884Z,101774.19
2024-01-20T14:32:24.238Z,101778.19
2024-01-20T14:34:55.069Z,101756.94
2024-01-20T14:37:23.061Z,101768.38
2024-01-20T14:39:51.324Z,101783.09
2024-01-20T14:42:19.282Z,101802.22
2024-01-20T14:44:47.213Z,101804.72
2024-01-20T14:47:16.701Z,101810.22
2024-01-20T14:49:44.767Z,101812.38
2024-01-20T14:52:12.787Z,101808.41
2024-01-20T14:54:40.950Z,101811.41
2024-01-20T14:57:08.869Z,101819.03
2024-01-20T14:59:36.974Z,101827.44
2024-01-20T15:02:06.920Z,101829.66
2024-01-20T15:04:37.245Z,101831.19
2024-01-20T15:07:06.984Z,101835.50
2024-01-20T15:09:35.092Z,101849.31
2024-01-20T15:12:03.275Z,101821.06
2024-01-20T15:14:31.368Z,101844.59
2024-01-20T15:16:59.254Z,101856.41
2024-01-20T15:19:28.098Z,101857.97
2024-01-20T15:21:57.676Z,101860.75
2024-01-20T15:24:26.007Z,101862.00
2024-01-20T15:26:53.908Z,101863.66
2024-01-20T15:29:21.943Z,101866.66
2024-01-20T15:31:50.024Z,101846.25
2024-01-20T15:34:18.132Z,101859.03
2024-01-20T15:36:46.415Z,101871.47
2024-01-20T15:39:16.616Z,101875.13
2024-01-20T15:41:47.203Z,101879.97
2024-01-20T15:44:15.560Z,101886.59
2024-01-20T15:46:43.444Z,101894.31
2024-01-20T15:49:11.970Z,101904.06
2024-01-20T15:51:40.317Z,101909.63
2024-01-20T15:54:08.257Z,101924.56
2024-01-20T15:56:43.524Z,101925.59
2024-01-20T15:59:11.546Z,101926.75
2024-01-20T16:01:39.792Z,101926.34
2024-01-20T16:04:09.057Z,101934.78
2024-01-20T16:06:39.955Z,101942.66
2024-01-20T16:09:08.557Z,101952.47
2024-01-20T16:11:38.659Z,101946.47
2024-01-20T16:14:07.854Z,101956.31
2024-01-20T16:16:35.922Z,101956.25
2024-01-20T16:19:04.037Z,101947.06
2024-01-20T16:21:33.082Z,101952.75
2024-01-20T16:24:01.126Z,101943.41
2024-01-20T16:26:29.068Z,101955.69
2024-01-20T16:28:57.146Z,101951.06
2024-01-20T16:31:26.724Z,101944.47
2024-01-20T16:33:54.949Z,101952.13
2024-01-20T16:36:23.017Z,101952.78
2024-01-20T16:38:51.073Z,101939.16
2024-01-20T16:41:20.597Z,101942.97
2024-01-20T16:43:48.555Z,101955.63
2024-01-20T16:46:16.587Z,101952.25
2024-01-20T16:48:46.272Z,101959.41
2024-01-20T16:51:22.076Z,101963.13
2024-01-20T16:53:52.928Z,101958.41
2024-01-20T16:56:22.976Z,101955.91
2024-01-20T16:58:50.860Z,101955.34
2024-01-20T17:01:19.010Z,101960.41
2024-01-20T17:03:48.456Z,101955.13
2024-01-20T17:06:20.804Z,101946.56
2024-01-20T17:08:48.991Z,101944.63
2024-01-20T17:11:18.987Z,101950.91
2024-01-20T17:13:48.887Z,101955.13
2024-01-20T17:16:17.175Z,101952.75
2024-01-20T17:18:45.282Z,101958.75
2024-01-20T17:21:19.982Z,101962.13
2024-01-20T17:23:52.827Z,101939.91
2024-01-20T17:26:27.520Z,101951.75
2024-01-20T17:28:55.879Z,101958.19
2024-01-20T17:31:24.051Z,101962.84
2024-01-20T17:33:53.390Z,101952.22
2024-01-20T17:36:23.167Z,101979.41
2024-01-20T17:38:51.172Z,101982.75
2024-01-20T17:41:19.382Z,101980.25
2024-01-20T17:43:47.394Z,101978.25
2024-01-20T17:46:15.632Z,101980.00
2024-01-20T17:48:43.778Z,101975.38
2024-01-20T17:51:12.078Z,101988.03
2024-01-20T17:53:41.339Z,101994.19
2024-01-20T17:56:09.349Z,101993.81
2024-01-20T17:58:37.440Z,101970.19
2024-01-20T18:01:06.357Z,102006.47
2024-01-20T18:03:35.503Z,102004.63
2024-01-20T18:06:03.706Z,102004.25
2024-01-20T18:08:31.848Z,102004.16
2024-01-20T18:11:01.176Z,101982.47
2024-01-20T18:13:29.118Z,102021.78
2024-01-20T18:15:59.116Z,102025.03
2024-01-20T18:18:26.922Z,102022.25
2024-01-20T18:20:55.234Z,102018.19
2024-01-20T18:23:23.842Z,102028.53
2024-01-20T18:25:51.893Z,102023.00
2024-01-20T18:28:21.184Z,102022.81
2024-01-20T18:30:52.726Z,102022.44
2024-01-20T18:33:21.372Z,102011.41
2024-01-20T18:35:49.648Z,102003.69
2024-01-20T18:38:17.607Z,102020.34
2024-01-20T18:40:45.707Z,102003.69
2024-01-20T18:43:16.664Z,102009.38
2024-01-20T18:45:46.151Z,102006.88
2024-01-20T18:48:14.168Z,102021.47
2024-01-20T18:50:42.228Z,102026.84
2024-01-20T18:53:10.319Z,102029.19
2024-01-20T18:55:38.348Z,102018.22
2024-01-20T18:58:06.448Z,102032.06
2024-01-20T19:00:34.669Z,102029.75
2024-01-20T19:03:08.755Z,102038.00
2024-01-20T19:05:37.048Z,102054.53
2024-01-20T19:08:05.572Z,102048.19
2024-01-20T19:10:34.750Z,102068.47
2024-01-20T19:13:03.675Z,102049.13
2024-01-20T19:15:31.702Z,102061.13
2024-01-20T19:18:01.752Z,102070.16
2024-01-20T19:20:33.720Z,102069.28
2024-01-20T19:23:03.067Z,102066.28
2024-01-20T19:25:33.076Z,102076.66
2024-01-20T19:28:01.610Z,102078.84
2024-01-20T19:30:29.798Z,102080.16
2024-01-20T19:32:57.972Z,102078.81
2024-01-20T19:35:29.167Z,102089.47
2024-01-20T19:38:02.271Z,102074.88
2024-01-20T19:40:30.442Z,102084.28
2024-01-20T19:42:58.966Z,102074.94
2024-01-20T19:45:27.067Z,102072.19
2024-01-20T19:47:57.692Z,102073.66
2024-01-20T19:50:26.023Z,102069.19
2024-01-20T19:52:53.902Z,102070.16
2024-01-20T19:55:24.906Z,102074.78
2024-01-20T19:57:53.030Z,102081.06
2024-01-20T20:00:23.205Z,102075.72
2024-01-20T20:02:52.069Z,102069.50
2024-01-20T20:05:20.187Z,102069.63
2024-01-20T20:07:48.223Z,102079.44
2024-01-20T20:10:18.188Z,102078.16
2024-01-20T20:12:47.826Z,102056.41
2024-01-20T20:15:16.140Z,102050.47
2024-01-20T20:17:45.456Z,102056.91
2024-01-20T20:20:15.661Z,102048.88
2024-01-20T20:22:43.628Z,102054.41
2024-01-20T20:25:11.958Z,102047.34
2024-01-20T20:27:39.999Z,102039.47
2024-01-20T20:30:10.463Z,102039.47
2024-01-20T20:32:46.796Z,102042.84
2024-01-20T20:35:15.656Z,102037.34
2024-01-20T20:37:46.737Z,102037.66
2024-01-20T20:40:16.910Z,102045.97
2024-01-20T20:42:45.008Z,102036.47
2024-01-20T20:45:17.172Z,102027.81
2024-01-20T20:47:45.317Z,102029.19
2024-01-20T20:50:19.247Z,102052.00
2024-01-20T20:52:49.549Z,102051.72
2024-01-20T20:55:19.241Z,102057.59
2024-01-20T20:57:47.338Z,102051.03
2024-01-20T21:00:18.096Z,102051.13
2024-01-20T21:02:46.499Z,102069.34
2024-01-20T21:05:17.321Z,102067.09
2024-01-20T21:07:46.140Z,102061.84
2024-01-20T21:10:16.139Z,102059.84
2024-01-20T21:12:44.598Z,102041.69
2024-01-20T21:15:18.735Z,102052.75
2024-01-20T21:17:46.803Z,102053.16
2024-01-20T21:20:15.076Z,102040.00
2024-01-20T21:22:43.362Z,102052.41
2024-01-20T21:25:11.502Z,102052.94
2024-01-20T21:27:39.456Z,102049.53
2024-01-20T21:30:08.834Z,102067.75
2024-01-20T21:32:38.232Z,102061.38
2024-01-20T21:35:06.700Z,102063.81
2024-01-20T21:37:35.097Z,102045.50
2024-01-20T21:40:03.107Z,102032.97
2024-01-20T21:42:31.057Z,102034.88
2024-01-20T21:45:01.231Z,102030.16
2024-01-20T21:47:28.929Z,102023.88
2024-01-20T21:49:58.464Z,102029.88
2024-01-20T21:52:26.778Z,102028.91
2024-01-20T21:54:55.045Z,102040.53
2024-01-20T21:57:22.975Z,102032.44
2024-01-20T21:59:50.965Z,102033.91
2024-01-20T22:02:18.953Z,102007.50
2024-01-20T22:04:46.842Z,102034.56
2024-01-20T22:07:16.483Z,102030.63
2024-01-20T22:09:44.697Z,102018.78
2024-01-20T22:12:12.639Z,102016.03
2024-01-20T22:14:40.728Z,102009.56
2024-01-20T22:17:08.684Z,102011.03
2024-01-20T22:19:37.176Z,102004.28
2024-01-20T22:22:05.658Z,102007.09
2024-01-20T22:24:35.072Z,102002.09
2024-01-20T22:27:03.206Z,102008.75
2024-01-20T22:29:32.174Z,102002.47
2024-01-20T22:32:01.443Z,102004.50
2024-01-20T22:34:32.813Z,101993.75
2024-01-20T22:37:01.333Z,101994.78
2024-01-20T22:39:29.535Z,101988.59
2024-01-20T22:41:59.303Z,101997.03
2024-01-20T22:44:27.388Z,101994.19
2024-01-20T22:46:55.268Z,102002.91
2024-01-20T22:49:23.923Z,101982.94
2024-01-20T22:51:52.055Z,101996.97
2024-01-20T22:54:23.598Z,101997.75
2024-01-20T22:56:52.346Z,101983.06
2024-01-20T22:59:21.646Z,101994.41
2024-01-20T23:01:49.644Z,102000.25
2024-01-20T23:04:17.779Z,101988.59
2024-01-20T23:06:46.747Z,101991.09
2024-01-20T23:09:18.143Z,101996.59
2024-01-20T23:11:46.380Z,101979.75
2024-01-20T23:14:14.370Z,101985.69
2024-01-20T23:16:43.818Z,101983.13
2024-01-20T23:19:12.368Z,101980.53
2024-01-20T23:21:40.407Z,101966.78
2024-01-20T23:24:08.427Z,101955.97
2024-01-20T23:26:37.444Z,101955.22
2024-01-20T23:29:05.437Z,101954.09
2024-01-20T23:31:33.326Z,101948.66
2024-01-20T23:34:02.838Z,101950.66
2024-01-20T23:36:31.030Z,101952.69
2024-01-20T23:38:59.057Z,101949.66
2024-01-20T23:41:27.222Z,101948.31
2024-01-20T23:43:55.253Z,101950.16
2024-01-20T23:46:23.225Z,101952.25
2024-01-20T23:48:51.169Z,101944.78
2024-01-20T23:51:20.698Z,101948.78
2024-01-20T23:53:51.162Z,101941.00
2024-01-20T23:56:19.127Z,101940.56
2024-01-20T23:58:47.143Z,101919.88
